Time;durP1;ratioP1;P1;durP2;ratioP2;P2;SDS_P1;SDS_P2;PMS_P1;PMS_P2;Temp;Humidity;BMP_temperature;BMP_pressure;BME280_temperature;BME280_humidity;BME280_pressure;Samples;Min_cycle;Max_cycle;Signal;HPM_P1;HPM_P2
2024/01/29 00:00:16;;;;;;;6.72;4.00;;;;;;;;;;5069999;28;20376;-76
2024/01/29 00:02:44;;;;;;;7.13;4.30;;;;;;;;;;5058425;28;20046;-77
2024/01/29 00:05:10;;;;;;;6.20;4.05;;;;;;;;;;5045575;28;20077;-77
2024/01/29 00:07:36;;;;;;;4.53;3.70;;;;;;;;;;5052339;28;20126;-77
2024/01/29 00:10:03;;;;;;;6.47;3.78;;;;;;;;;;5033454;28;20119;-77
2024/01/29 00:12:29;;;;;;;6.38;4.00;;;;;;;;;;5055415;28;20468;-77
2024/01/29 00:14:55;;;;;;;4.82;3.45;;;;;;;;;;5061877;28;20075;-76
2024/01/29 00:17:21;;;;;;;8.35;4.25;;;;;;;;;;5053620;28;20047;-75
2024/01/29 00:19:47;;;;;;;4.78;3.70;;;;;;;;;;5052067;28;20487;-76
2024/01/29 00:22:13;;;;;;;5.35;3.80;;;;;;;;;;5066421;28;20470;-77
2024/01/29 00:24:40;;;;;;;7.15;4.00;;;;;;;;;;5076802;28;20035;-77
2024/01/29 00:27:06;;;;;;;7.28;4.38;;;;;;;;;;5052289;28;20039;-76
2024/01/29 00:29:32;;;;;;;5.65;4.03;;;;;;;;;;5067610;28;20029;-76
2024/01/29 00:31:58;;;;;;;6.05;3.80;;;;;;;;;;5052352;28;20066;-76
2024/01/29 00:34:25;;;;;;;7.78;4.00;;;;;;;;;;5070695;28;20096;-76
2024/01/29 00:36:51;;;;;;;6.00;4.30;;;;;;;;;;5052470;28;20059;-77
2024/01/29 00:39:17;;;;;;;5.78;3.95;;;;;;;;;;5034218;28;20037;-76
2024/01/29 00:41:43;;;;;;;7.07;3.95;;;;;;;;;;5052940;28;20502;-76
2024/01/29 00:44:09;;;;;;;6.10;3.80;;;;;;;;;;5034306;28;20044;-77
2024/01/29 00:46:38;;;;;;;7.10;3.85;;;;;;;;;;5050331;28;20685;-77
2024/01/29 00:49:04;;;;;;;5.93;3.78;;;;;;;;;;5059382;28;20089;-78
2024/01/29 00:51:31;;;;;;;4.07;3.42;;;;;;;;;;5034152;28;20039;-78
2024/01/29 00:53:57;;;;;;;6.35;4.00;;;;;;;;;;5038406;28;20474;-77
2024/01/29 00:56:23;;;;;;;5.15;3.75;;;;;;;;;;5052621;28;20080;-77
2024/01/29 00:58:49;;;;;;;7.32;4.10;;;;;;;;;;5068896;28;20453;-76
2024/01/29 01:01:15;;;;;;;6.15;3.63;;;;;;;;;;5053191;28;20483;-76
2024/01/29 01:03:41;;;;;;;7.78;4.05;;;;;;;;;;5032810;28;20051;-76
2024/01/29 01:06:07;;;;;;;5.82;3.70;;;;;;;;;;5050381;28;20434;-77
2024/01/29 01:08:33;;;;;;;6.57;4.25;;;;;;;;;;5068443;28;20484;-76
2024/01/29 01:11:03;;;;;;;6.13;4.10;;;;;;;;;;5048626;28;20036;-75
2024/01/29 01:13:29;;;;;;;7.22;3.85;;;;;;;;;;5066076;28;20038;-76
2024/01/29 01:15:55;;;;;;;6.07;3.75;;;;;;;;;;5068795;28;20033;-77
2024/01/29 01:18:21;;;;;;;8.23;4.15;;;;;;;;;;5043269;28;20127;-77
2024/01/29 01:20:47;;;;;;;7.47;3.90;;;;;;;;;;5044965;28;20050;-77
2024/01/29 01:23:14;;;;;;;14.60;4.90;;;;;;;;;;5051894;28;20483;-77
2024/01/29 01:25:41;;;;;;;6.47;3.95;;;;;;;;;;5051046;28;20103;-77
2024/01/29 01:28:08;;;;;;;7.10;3.75;;;;;;;;;;5047793;28;20041;-77
2024/01/29 01:30:34;;;;;;;6.50;4.05;;;;;;;;;;5051171;28;20028;-77
2024/01/29 01:33:00;;;;;;;6.30;3.95;;;;;;;;;;5068700;28;20104;-77
2024/01/29 01:35:26;;;;;;;7.53;3.92;;;;;;;;;;5053719;28;20040;-77
2024/01/29 01:37:52;;;;;;;5.50;4.03;;;;;;;;;;5054216;28;20196;-77
2024/01/29 01:40:19;;;;;;;7.30;4.28;;;;;;;;;;5037973;28;20072;-77
2024/01/29 01:42:45;;;;;;;4.57;3.25;;;;;;;;;;5071788;28;21805;-77
2024/01/29 01:45:12;;;;;;;5.53;3.42;;;;;;;;;;5068024;28;20039;-77
2024/01/29 01:47:38;;;;;;;4.45;3.70;;;;;;;;;;5035436;28;20058;-77
2024/01/29 01:50:07;;;;;;;5.47;3.35;;;;;;;;;;5048766;28;20125;-77
2024/01/29 01:52:35;;;;;;;5.53;3.95;;;;;;;;;;5068741;28;20033;-77
2024/01/29 01:55:01;;;;;;;6.47;3.78;;;;;;;;;;5064821;28;20058;-77
2024/01/29 01:57:29;;;;;;;8.57;3.50;;;;;;;;;;5066502;28;20040;-77
2024/01/29 01:59:56;;;;;;;5.25;3.83;;;;;;;;;;5062304;28;20043;-77
2024/01/29 02:02:22;;;;;;;10.27;3.97;;;;;;;;;;5066655;28;20036;-77
2024/01/29 02:04:48;;;;;;;5.05;3.67;;;;;;;;;;5048969;28;20039;-77
2024/01/29 02:07:14;;;;;;;5.05;4.07;;;;;;;;;;5064083;28;20473;-77
2024/01/29 02:09:40;;;;;;;6.47;4.63;;;;;;;;;;5033811;28;20028;-77
2024/01/29 02:12:08;;;;;;;4.00;3.47;;;;;;;;;;5049454;28;20056;-77
2024/01/29 02:14:34;;;;;;;5.63;3.83;;;;;;;;;;5051147;28;20036;-77
2024/01/29 02:17:00;;;;;;;6.63;4.32;;;;;;;;;;5065889;28;20085;-77
2024/01/29 02:19:26;;;;;;;6.45;4.18;;;;;;;;;;5035180;28;20044;-76
2024/01/29 02:21:53;;;;;;;6.85;4.40;;;;;;;;;;5037361;28;20044;-76
2024/01/29 02:24:19;;;;;;;6.45;4.00;;;;;;;;;;5052204;28;20483;-76
2024/01/29 02:26:46;;;;;;;5.97;4.43;;;;;;;;;;5055186;28;20035;-76
2024/01/29 02:29:12;;;;;;;7.93;4.07;;;;;;;;;;5056359;28;20033;-76
2024/01/29 02:31:38;;;;;;;5.13;3.63;;;;;;;;;;5075811;28;20082;-76
2024/01/29 02:34:05;;;;;;;6.85;4.18;;;;;;;;;;5041138;28;20040;-76
2024/01/29 02:36:31;;;;;;;6.35;4.00;;;;;;;;;;5053730;28;21021;-76
2024/01/29 02:38:57;;;;;;;7.55;4.00;;;;;;;;;;5036147;28;20044;-76
2024/01/29 02:41:23;;;;;;;4.75;3.97;;;;;;;;;;5069793;28;20122;-76
2024/01/29 02:43:49;;;;;;;9.18;4.00;;;;;;;;;;5051396;28;20437;-76
2024/01/29 02:46:18;;;;;;;5.63;4.15;;;;;;;;;;5073113;28;20039;-76
2024/01/29 02:48:44;;;;;;;9.00;4.38;;;;;;;;;;5040776;28;20040;-76
2024/01/29 02:51:10;;;;;;;7.70;4.10;;;;;;;;;;5073955;28;20139;-76
2024/01/29 02:53:36;;;;;;;13.30;3.97;;;;;;;;;;5051387;28;20032;-76
2024/01/29 02:56:02;;;;;;;5.75;4.15;;;;;;;;;;5052606;28;20051;-76
2024/01/29 02:58:29;;;;;;;7.25;4.35;;;;;;;;;;5049877;28;20118;-76
2024/01/29 03:00:55;;;;;;;6.53;4.72;;;;;;;;;;5052996;28;20054;-76
2024/01/29 03:03:22;;;;;;;7.10;4.30;;;;;;;;;;5069083;28;20044;-76
2024/01/29 03:05:48;;;;;;;5.85;4.10;;;;;;;;;;5036212;28;20479;-75
2024/01/29 03:08:14;;;;;;;6.10;4.15;;;;;;;;;;5051952;28;20036;-76
2024/01/29 03:10:40;;;;;;;5.70;3.85;;;;;;;;;;5050565;28;20387;-76
2024/01/29 03:13:06;;;;;;;7.28;4.22;;;;;;;;;;5055690;28;20040;-76
2024/01/29 03:15:32;;;;;;;7.15;4.30;;;;;;;;;;5035857;28;20566;-76
2024/01/29 03:17:58;;;;;;;7.75;4.35;;;;;;;;;;5069637;28;20040;-76
2024/01/29 03:20:24;;;;;;;5.32;3.83;;;;;;;;;;5050119;28;20577;-76
2024/01/29 03:22:50;;;;;;;6.75;3.80;;;;;;;;;;5069459;28;20560;-76
2024/01/29 03:25:16;;;;;;;6.85;4.30;;;;;;;;;;5051441;28;20089;-76
2024/01/29 03:27:42;;;;;;;6.40;3.85;;;;;;;;;;5050592;28;20028;-76
2024/01/29 03:30:09;;;;;;;6.25;3.85;;;;;;;;;;5048354;28;20463;-76
2024/01/29 03:32:35;;;;;;;6.03;4.00;;;;;;;;;;5053128;28;20032;-76
2024/01/29 03:35:01;;;;;;;5.03;4.43;;;;;;;;;;5055630;28;20051;-75
2024/01/29 03:37:29;;;;;;;7.68;3.95;;;;;;;;;;5052023;28;20051;-75
2024/01/29 03:39:55;;;;;;;7.15;4.13;;;;;;;;;;5066256;28;20086;-76
2024/01/29 03:42:21;;;;;;;7.40;4.28;;;;;;;;;;5067295;28;20036;-76
2024/01/29 03:44:47;;;;;;;7.10;4.40;;;;;;;;;;5070308;28;20351;-76
2024/01/29 03:47:13;;;;;;;7.05;4.57;;;;;;;;;;5065533;28;20032;-75
2024/01/29 03:49:39;;;;;;;8.48;4.53;;;;;;;;;;5049157;28;20032;-76
2024/01/29 03:52:05;;;;;;;7.30;4.47;;;;;;;;;;5049491;28;20044;-76
2024/01/29 03:54:31;;;;;;;6.97;4.20;;;;;;;;;;5065667;28;20067;-75
2024/01/29 03:56:57;;;;;;;6.63;4.05;;;;;;;;;;5048439;28;20028;-75
2024/01/29 03:59:23;;;;;;;7.35;4.50;;;;;;;;;;5031562;28;20123;-76
2024/01/29 04:01:49;;;;;;;5.47;4.38;;;;;;;;;;5051653;28;20047;-75
2024/01/29 04:04:15;;;;;;;6.80;4.30;;;;;;;;;;5064617;28;20039;-75
2024/01/29 04:06:43;;;;;;;8.07;4.32;;;;;;;;;;5056485;28;20127;-76
2024/01/29 04:09:09;;;;;;;7.72;4.85;;;;;;;;;;5052062;28;20066;-76
2024/01/29 04:11:36;;;;;;;6.50;4.10;;;;;;;;;;5050377;28;20040;-76
2024/01/29 04:14:03;;;;;;;10.18;4.70;;;;;;;;;;5048076;28;20040;-75
2024/01/29 04:16:29;;;;;;;8.73;4.55;;;;;;;;;;5052831;28;20048;-76
2024/01/29 04:18:55;;;;;;;6.47;4.40;;;;;;;;;;5051379;28;20189;-75
2024/01/29 04:21:21;;;;;;;6.20;4.35;;;;;;;;;;5049903;28;20032;-76
2024/01/29 04:23:47;;;;;;;5.90;4.53;;;;;;;;;;5061058;28;20046;-76
2024/01/29 04:26:13;;;;;;;9.75;4.20;;;;;;;;;;5049832;28;20208;-76
2024/01/29 04:28:39;;;;;;;7.65;4.63;;;;;;;;;;5056121;28;20429;-75
2024/01/29 04:31:05;;;;;;;8.57;4.40;;;;;;;;;;5068718;28;20035;-76
2024/01/29 04:33:32;;;;;;;7.00;4.88;;;;;;;;;;5071522;28;20166;-75
2024/01/29 04:35:58;;;;;;;5.65;4.60;;;;;;;;;;5052334;28;20047;-76
2024/01/29 04:38:24;;;;;;;5.10;4.25;;;;;;;;;;5068899;28;20076;-76
2024/01/29 04:40:50;;;;;;;6.53;4.75;;;;;;;;;;5081745;28;20075;-75
2024/01/29 04:43:16;;;;;;;6.72;4.50;;;;;;;;;;5069895;28;20166;-76
2024/01/29 04:45:42;;;;;;;9.45;4.38;;;;;;;;;;5068426;28;20052;-76
2024/01/29 04:48:08;;;;;;;6.68;5.20;;;;;;;;;;5033196;28;20740;-76
2024/01/29 04:50:34;;;;;;;6.65;4.68;;;;;;;;;;5031377;28;20082;-76
2024/01/29 04:53:01;;;;;;;7.20;4.43;;;;;;;;;;5033774;28;20127;-77
2024/01/29 04:55:27;;;;;;;6.10;4.38;;;;;;;;;;5051069;28;20043;-77
2024/01/29 04:57:53;;;;;;;8.73;5.03;;;;;;;;;;5068261;28;20209;-77
2024/01/29 05:00:19;;;;;;;7.47;4.75;;;;;;;;;;5053970;28;20059;-77
2024/01/29 05:02:47;;;;;;;9.13;5.30;;;;;;;;;;5047916;28;20040;-76
2024/01/29 05:05:14;;;;;;;8.20;4.90;;;;;;;;;;5047223;28;20398;-76
2024/01/29 05:07:40;;;;;;;7.32;4.93;;;;;;;;;;5047605;28;20035;-76
2024/01/29 05:10:08;;;;;;;8.15;5.22;;;;;;;;;;5062995;28;20039;-76
2024/01/29 05:12:34;;;;;;;8.32;4.85;;;;;;;;;;5044126;28;20040;-77
2024/01/29 05:15:00;;;;;;;7.60;5.03;;;;;;;;;;5060365;28;20039;-77
2024/01/29 05:17:26;;;;;;;6.28;4.82;;;;;;;;;;5049607;28;20032;-76
2024/01/29 05:19:52;;;;;;;12.45;4.57;;;;;;;;;;5057066;28;20035;-77
2024/01/29 05:22:19;;;;;;;11.18;5.65;;;;;;;;;;5051703;28;20078;-76
2024/01/29 05:24:45;;;;;;;8.23;4.97;;;;;;;;;;5045942;28;20058;-77
2024/01/29 05:27:11;;;;;;;7.53;4.32;;;;;;;;;;5068476;28;20056;-77
2024/01/29 05:29:37;;;;;;;7.60;4.35;;;;;;;;;;5067874;28;20044;-77
2024/01/29 05:32:03;;;;;;;9.30;5.75;;;;;;;;;;5047530;28;20080;-77
2024/01/29 05:34:29;;;;;;;9.15;5.07;;;;;;;;;;5051863;28;20039;-76
2024/01/29 05:36:55;;;;;;;9.18;5.30;;;;;;;;;;5050735;28;20080;-77
2024/01/29 05:39:21;;;;;;;8.52;5.45;;;;;;;;;;5067839;28;20055;-76
2024/01/29 05:41:47;;;;;;;5.90;4.93;;;;;;;;;;5051909;28;20123;-76
2024/01/29 05:44:13;;;;;;;7.85;5.35;;;;;;;;;;5069406;28;20479;-77
2024/01/29 05:46:40;;;;;;;7.25;5.10;;;;;;;;;;5049389;28;20082;-78
2024/01/29 05:49:06;;;;;;;5.88;4.72;;;;;;;;;;5049460;28;20048;-78
2024/01/29 05:51:32;;;;;;;12.05;5.68;;;;;;;;;;5065040;28;20036;-77
2024/01/29 05:53:58;;;;;;;11.05;5.55;;;;;;;;;;5035572;28;20067;-77
2024/01/29 05:56:24;;;;;;;7.60;5.00;;;;;;;;;;5053366;28;20043;-77
2024/01/29 05:58:50;;;;;;;9.30;5.65;;;;;;;;;;5049900;28;20479;-76
2024/01/29 06:01:17;;;;;;;9.75;5.70;;;;;;;;;;5034446;28;20052;-77
2024/01/29 06:03:43;;;;;;;6.32;5.30;;;;;;;;;;5051670;28;20055;-77
2024/01/29 06:06:09;;;;;;;8.48;5.82;;;;;;;;;;5067058;28;20388;-76
2024/01/29 06:08:35;;;;;;;6.68;5.30;;;;;;;;;;5091976;28;20598;-77
2024/01/29 06:11:01;;;;;;;7.63;5.65;;;;;;;;;;5077828;28;20487;-77
2024/01/29 06:13:27;;;;;;;9.55;5.38;;;;;;;;;;5057238;28;20028;-76
2024/01/29 06:15:53;;;;;;;7.43;5.78;;;;;;;;;;5097795;28;20097;-77
2024/01/29 06:18:20;;;;;;;10.00;5.50;;;;;;;;;;5052170;28;20031;-76
2024/01/29 06:20:46;;;;;;;9.00;6.35;;;;;;;;;;5072421;28;20537;-76
2024/01/29 06:23:14;;;;;;;8.90;5.55;;;;;;;;;;5052905;28;20083;-77
2024/01/29 06:25:40;;;;;;;11.90;6.53;;;;;;;;;;5058102;28;20545;-74
2024/01/29 06:28:07;;;;;;;8.82;5.40;;;;;;;;;;5058802;28;20044;-76
2024/01/29 06:30:33;;;;;;;7.65;5.30;;;;;;;;;;5042462;28;20494;-75
2024/01/29 06:33:00;;;;;;;8.10;5.60;;;;;;;;;;5083992;28;20039;-76
2024/01/29 06:35:26;;;;;;;12.85;6.47;;;;;;;;;;5061160;28;20031;-75
2024/01/29 06:37:52;;;;;;;8.15;5.60;;;;;;;;;;5064307;28;20052;-75
2024/01/29 06:40:22;;;;;;;8.32;5.30;;;;;;;;;;5073693;28;20063;-75
2024/01/29 06:42:48;;;;;;;9.35;6.72;;;;;;;;;;5058707;28;20122;-74
2024/01/29 06:45:15;;;;;;;8.68;5.80;;;;;;;;;;5065663;28;20040;-75
2024/01/29 06:47:41;;;;;;;11.30;6.30;;;;;;;;;;5071311;28;20075;-75
2024/01/29 06:50:07;;;;;;;10.40;6.03;;;;;;;;;;5056043;28;20063;-75
2024/01/29 06:52:33;;;;;;;9.45;5.70;;;;;;;;;;5050645;28;20039;-76
2024/01/29 06:55:00;;;;;;;11.73;6.68;;;;;;;;;;5037140;28;20028;-75
2024/01/29 06:57:26;;;;;;;10.43;5.45;;;;;;;;;;5075177;28;20036;-76
2024/01/29 06:59:52;;;;;;;11.18;6.05;;;;;;;;;;5055292;28;20131;-77
2024/01/29 07:02:18;;;;;;;8.75;6.25;;;;;;;;;;5076488;28;20055;-77
2024/01/29 07:04:44;;;;;;;11.10;6.47;;;;;;;;;;5069788;28;20065;-78
2024/01/29 07:07:10;;;;;;;13.15;5.57;;;;;;;;;;5065767;28;20036;-78
2024/01/29 07:09:36;;;;;;;11.93;5.82;;;;;;;;;;5066052;28;20044;-78
2024/01/29 07:12:02;;;;;;;7.53;5.35;;;;;;;;;;5092312;28;20043;-78
2024/01/29 07:14:28;;;;;;;8.13;6.28;;;;;;;;;;5071208;28;20032;-77
2024/01/29 07:16:55;;;;;;;9.82;6.03;;;;;;;;;;5038570;28;20090;-77
2024/01/29 07:19:33;;;;;;;9.60;6.53;;;;;;;;;;5086939;28;20063;-77
2024/01/29 07:21:59;;;;;;;11.02;6.90;;;;;;;;;;5073910;28;20056;-76
2024/01/29 07:24:26;;;;;;;10.95;6.25;;;;;;;;;;5055694;28;20406;-77
2024/01/29 07:26:53;;;;;;;11.45;6.65;;;;;;;;;;5091228;28;20074;-77
2024/01/29 07:29:19;;;;;;;11.43;6.57;;;;;;;;;;5068433;28;20047;-77
2024/01/29 07:31:46;;;;;;;12.57;6.63;;;;;;;;;;5049549;28;20058;-76
2024/01/29 07:34:12;;;;;;;9.15;6.03;;;;;;;;;;5049930;28;20036;-77
2024/01/29 07:36:39;;;;;;;10.50;6.68;;;;;;;;;;5052497;28;20127;-83
2024/01/29 07:39:05;;;;;;;8.30;6.10;;;;;;;;;;5056463;28;20119;-83
2024/01/29 07:41:32;;;;;;;9.95;6.40;;;;;;;;;;5041491;28;20051;-84
2024/01/29 07:43:58;;;;;;;7.93;6.10;;;;;;;;;;5057176;28;20039;-84
2024/01/29 07:46:24;;;;;;;9.35;6.75;;;;;;;;;;5079359;28;20062;-85
2024/01/29 07:48:50;;;;;;;9.32;6.93;;;;;;;;;;5042431;28;20037;-84
2024/01/29 07:51:16;;;;;;;11.43;6.75;;;;;;;;;;5081007;28;20088;-85
2024/01/29 07:53:42;;;;;;;7.63;6.30;;;;;;;;;;5073303;28;20065;-84
2024/01/29 07:56:08;;;;;;;12.45;6.47;;;;;;;;;;5043166;28;20031;-84
2024/01/29 07:58:35;;;;;;;9.40;6.70;;;;;;;;;;5065431;28;20130;-83
2024/01/29 08:01:01;;;;;;;10.98;6.28;;;;;;;;;;5078130;28;20048;-85
2024/01/29 08:03:27;;;;;;;13.95;6.43;;;;;;;;;;5071227;28;20036;-84
2024/01/29 08:05:53;;;;;;;8.77;5.85;;;;;;;;;;5084857;28;20092;-84
2024/01/29 08:08:19;;;;;;;15.77;6.65;;;;;;;;;;5068578;28;20402;-83
2024/01/29 08:10:47;;;;;;;12.10;6.78;;;;;;;;;;5061807;28;20050;-84
2024/01/29 08:13:14;;;;;;;9.65;6.78;;;;;;;;;;5080749;28;20403;-83
2024/01/29 08:15:40;;;;;;;11.48;6.28;;;;;;;;;;5062614;28;20032;-80
2024/01/29 08:18:06;;;;;;;9.65;6.50;;;;;;;;;;5076062;28;20051;-80
2024/01/29 08:20:32;;;;;;;9.90;6.60;;;;;;;;;;5072616;28;20040;-81
2024/01/29 08:22:59;;;;;;;11.20;7.35;;;;;;;;;;5062887;28;20039;-80
2024/01/29 08:25:26;;;;;;;11.90;6.78;;;;;;;;;;5063352;28;20036;-79
2024/01/29 08:27:52;;;;;;;13.00;7.13;;;;;;;;;;5052113;28;20127;-81
2024/01/29 08:30:18;;;;;;;10.70;6.78;;;;;;;;;;5067821;28;20114;-81
2024/01/29 08:32:44;;;;;;;13.68;7.43;;;;;;;;;;5060373;28;20551;-82
2024/01/29 08:35:11;;;;;;;15.50;7.85;;;;;;;;;;5032432;28;20492;-80
2024/01/29 08:37:37;;;;;;;12.60;7.55;;;;;;;;;;5076140;28;20147;-81
2024/01/29 08:40:03;;;;;;;17.88;8.02;;;;;;;;;;5057066;28;20109;-81
2024/01/29 08:42:29;;;;;;;18.60;7.25;;;;;;;;;;5067764;28;21778;-79
2024/01/29 08:44:56;;;;;;;12.52;7.38;;;;;;;;;;5069362;28;20039;-79
2024/01/29 08:47:25;;;;;;;14.00;7.15;;;;;;;;;;5068177;28;20075;-80
2024/01/29 08:49:51;;;;;;;9.15;7.20;;;;;;;;;;5032805;28;20060;-81
2024/01/29 08:52:17;;;;;;;8.02;5.78;;;;;;;;;;5070405;28;20082;-80
2024/01/29 08:54:44;;;;;;;10.07;7.00;;;;;;;;;;5080524;28;20085;-80
2024/01/29 08:57:10;;;;;;;10.55;6.47;;;;;;;;;;5103731;28;20040;-81
2024/01/29 08:59:36;;;;;;;14.02;7.25;;;;;;;;;;5063818;28;20388;-81
2024/01/29 09:02:02;;;;;;;13.02;6.80;;;;;;;;;;5087540;28;20350;-79
2024/01/29 09:04:28;;;;;;;10.40;6.97;;;;;;;;;;5045247;28;20389;-81
2024/01/29 09:06:54;;;;;;;11.63;7.32;;;;;;;;;;5074622;28;20043;-80
2024/01/29 09:09:21;;;;;;;11.00;7.72;;;;;;;;;;5081375;28;20036;-81
2024/01/29 09:11:47;;;;;;;12.73;7.07;;;;;;;;;;5076327;28;20047;-81
2024/01/29 09:14:13;;;;;;;8.82;6.25;;;;;;;;;;5079261;28;20032;-81
2024/01/29 09:16:39;;;;;;;9.73;7.15;;;;;;;;;;5054143;28;20039;-81
2024/01/29 09:19:06;;;;;;;17.35;7.32;;;;;;;;;;5084123;28;20047;-81
2024/01/29 09:21:34;;;;;;;10.13;7.20;;;;;;;;;;5081088;28;20094;-81
2024/01/29 09:24:00;;;;;;;11.90;7.40;;;;;;;;;;5059679;28;20135;-80
2024/01/29 09:26:26;;;;;;;12.73;7.53;;;;;;;;;;5055484;28;20048;-81
2024/01/29 09:28:53;;;;;;;10.90;8.50;;;;;;;;;;5062459;28;20488;-80
2024/01/29 09:31:19;;;;;;;10.13;7.05;;;;;;;;;;5073238;28;20472;-81
2024/01/29 09:33:45;;;;;;;10.10;8.38;;;;;;;;;;5059392;28;20033;-80
2024/01/29 09:36:11;;;;;;;18.52;8.05;;;;;;;;;;5076410;28;20023;-82
2024/01/29 09:38:38;;;;;;;10.65;7.65;;;;;;;;;;5054011;28;20079;-80
2024/01/29 09:41:04;;;;;;;12.40;8.55;;;;;;;;;;5034939;28;20047;-81
2024/01/29 09:43:33;;;;;;;10.88;7.50;;;;;;;;;;5047478;28;20480;-82
2024/01/29 09:46:02;;;;;;;11.18;8.20;;;;;;;;;;5071282;28;20036;-83
2024/01/29 09:48:30;;;;;;;10.80;7.38;;;;;;;;;;5064065;28;20043;-81
2024/01/29 09:50:57;;;;;;;13.38;8.60;;;;;;;;;;5069214;28;20056;-81
2024/01/29 09:53:23;;;;;;;15.15;7.55;;;;;;;;;;5075487;28;20514;-80
2024/01/29 09:55:50;;;;;;;15.70;7.85;;;;;;;;;;5082699;28;20047;-80
2024/01/29 09:58:17;;;;;;;14.38;8.48;;;;;;;;;;5062653;28;20407;-81
2024/01/29 10:00:43;;;;;;;14.60;8.45;;;;;;;;;;5063420;28;20032;-79
2024/01/29 10:03:14;;;;;;;11.95;8.48;;;;;;;;;;5074699;28;20124;-80
2024/01/29 10:05:40;;;;;;;16.23;11.43;;;;;;;;;;5069246;28;20043;-80
2024/01/29 10:08:08;;;;;;;13.98;9.95;;;;;;;;;;5073029;28;20048;-83
2024/01/29 10:10:34;;;;;;;12.60;8.30;;;;;;;;;;5062122;28;20032;-80
2024/01/29 10:13:04;;;;;;;12.85;9.00;;;;;;;;;;5059813;28;20059;-81
2024/01/29 10:15:31;;;;;;;12.68;8.98;;;;;;;;;;5073037;28;20043;-81
2024/01/29 10:17:57;;;;;;;11.35;8.35;;;;;;;;;;5046371;28;20044;-82
2024/01/29 10:20:24;;;;;;;11.00;8.05;;;;;;;;;;5049160;28;20040;-81
2024/01/29 10:22:58;;;;;;;11.95;8.70;;;;;;;;;;5060423;28;20048;-81
2024/01/29 10:25:24;;;;;;;13.05;8.57;;;;;;;;;;5088282;28;20121;-81
2024/01/29 10:27:50;;;;;;;13.88;8.18;;;;;;;;;;5063635;28;20058;-80
2024/01/29 10:30:16;;;;;;;11.98;8.50;;;;;;;;;;5080387;28;20032;-80
2024/01/29 10:32:42;;;;;;;14.02;8.90;;;;;;;;;;5062058;28;20042;-80
2024/01/29 10:35:08;;;;;;;14.43;8.88;;;;;;;;;;5060535;28;20082;-75
2024/01/29 10:37:34;;;;;;;11.55;8.98;;;;;;;;;;5045804;28;20052;-75
2024/01/29 10:40:04;;;;;;;12.73;9.43;;;;;;;;;;5086276;28;20040;-75
2024/01/29 10:42:30;;;;;;;17.33;9.02;;;;;;;;;;5072632;28;20043;-76
2024/01/29 10:45:00;;;;;;;16.40;9.43;;;;;;;;;;5062837;28;20036;-79
2024/01/29 10:47:31;;;;;;;14.05;9.18;;;;;;;;;;5060538;28;20062;-76
2024/01/29 10:50:00;;;;;;;13.27;9.07;;;;;;;;;;5060808;28;20115;-76
2024/01/29 10:52:27;;;;;;;11.98;8.27;;;;;;;;;;5077234;28;21775;-76
2024/01/29 10:54:55;;;;;;;16.98;8.23;;;;;;;;;;5047458;28;20032;-76
2024/01/29 10:57:22;;;;;;;10.45;8.32;;;;;;;;;;5083957;28;20036;-75
2024/01/29 10:59:48;;;;;;;11.98;8.73;;;;;;;;;;5059356;28;20036;-76
2024/01/29 11:02:15;;;;;;;12.52;8.98;;;;;;;;;;5056893;28;20044;-77
2024/01/29 11:04:42;;;;;;;15.20;9.63;;;;;;;;;;5056154;28;20044;-76
2024/01/29 11:07:15;;;;;;;13.30;10.40;;;;;;;;;;5071643;28;20123;-75
2024/01/29 11:09:45;;;;;;;13.73;9.68;;;;;;;;;;5074292;28;20044;-75
2024/01/29 11:12:13;;;;;;;15.75;9.48;;;;;;;;;;5061757;28;20046;-77
2024/01/29 11:14:39;;;;;;;15.02;8.48;;;;;;;;;;5056919;28;20040;-75
2024/01/29 11:17:07;;;;;;;18.65;10.35;;;;;;;;;;5073240;28;20044;-75
2024/01/29 11:19:34;;;;;;;21.77;10.45;;;;;;;;;;5052447;28;20050;-76
2024/01/29 11:22:01;;;;;;;17.02;11.32;;;;;;;;;;5055834;28;20078;-75
2024/01/29 11:24:27;;;;;;;20.50;11.13;;;;;;;;;;5056712;28;20040;-76
2024/01/29 11:26:53;;;;;;;16.63;11.63;;;;;;;;;;5073470;28;20036;-76
2024/01/29 11:29:21;;;;;;;15.30;10.70;;;;;;;;;;5058161;28;20036;-77
2024/01/29 11:31:48;;;;;;;15.50;11.02;;;;;;;;;;5055563;28;20044;-77
2024/01/29 11:34:14;;;;;;;21.98;11.27;;;;;;;;;;5040173;28;20525;-77
2024/01/29 11:36:41;;;;;;;17.48;11.40;;;;;;;;;;5060019;28;20403;-76
2024/01/29 11:39:14;;;;;;;18.45;11.23;;;;;;;;;;5080599;28;20126;-77
2024/01/29 11:41:48;;;;;;;15.80;11.00;;;;;;;;;;5045837;28;20036;-77
2024/01/29 11:44:17;;;;;;;17.98;12.55;;;;;;;;;;5056446;28;20043;-77
2024/01/29 11:46:43;;;;;;;13.95;11.23;;;;;;;;;;5075178;28;20055;-78
2024/01/29 11:49:09;;;;;;;18.17;11.43;;;;;;;;;;5074528;28;20430;-77
2024/01/29 11:51:35;;;;;;;18.02;11.50;;;;;;;;;;5055098;28;20067;-75
2024/01/29 11:54:01;;;;;;;18.95;11.65;;;;;;;;;;5072267;28;20365;-77
2024/01/29 11:56:27;;;;;;;16.45;11.85;;;;;;;;;;5046567;28;20039;-77
2024/01/29 11:59:03;;;;;;;18.10;12.43;;;;;;;;;;5063510;28;20036;-76
2024/01/29 12:01:31;;;;;;;15.50;11.07;;;;;;;;;;5060080;28;20042;-78
2024/01/29 12:03:58;;;;;;;17.23;12.38;;;;;;;;;;5062481;28;20085;-77
2024/01/29 12:06:25;;;;;;;18.67;12.43;;;;;;;;;;5070245;28;20062;-78
2024/01/29 12:08:56;;;;;;;19.42;11.82;;;;;;;;;;5057499;28;20430;-77
2024/01/29 12:11:24;;;;;;;21.38;13.25;;;;;;;;;;5063573;28;20050;-77
2024/01/29 12:13:53;;;;;;;18.63;12.90;;;;;;;;;;5078362;28;20046;-77
2024/01/29 12:16:20;;;;;;;24.88;14.10;;;;;;;;;;5065298;28;20038;-78
2024/01/29 12:18:46;;;;;;;26.65;14.18;;;;;;;;;;5056217;28;20042;-78
2024/01/29 12:21:12;;;;;;;27.17;13.10;;;;;;;;;;5055295;28;20046;-78
2024/01/29 12:23:38;;;;;;;24.42;14.05;;;;;;;;;;5070030;28;20036;-77
2024/01/29 12:26:04;;;;;;;24.10;14.98;;;;;;;;;;5056230;28;20054;-78
2024/01/29 12:28:30;;;;;;;29.10;13.88;;;;;;;;;;5044769;28;20049;-77
2024/01/29 12:30:58;;;;;;;26.20;14.82;;;;;;;;;;5070802;28;20039;-77
2024/01/29 12:33:29;;;;;;;26.98;14.35;;;;;;;;;;5064749;28;20036;-77
2024/01/29 12:35:58;;;;;;;20.25;13.65;;;;;;;;;;5052744;28;20093;-78
2024/01/29 12:38:25;;;;;;;26.38;13.52;;;;;;;;;;5036499;28;20114;-77
2024/01/29 12:40:57;;;;;;;25.65;14.55;;;;;;;;;;5056811;28;20123;-77
2024/01/29 12:43:27;;;;;;;27.27;13.77;;;;;;;;;;5035970;28;20040;-76
2024/01/29 12:46:06;;;;;;;26.00;15.15;;;;;;;;;;5055375;28;20511;-76
2024/01/29 12:48:32;;;;;;;22.90;14.48;;;;;;;;;;5056918;28;20407;-77
2024/01/29 12:50:58;;;;;;;24.27;14.05;;;;;;;;;;5041930;28;20085;-77
2024/01/29 12:53:24;;;;;;;22.83;14.43;;;;;;;;;;5041080;28;20170;-76
2024/01/29 12:55:50;;;;;;;27.40;14.35;;;;;;;;;;5036401;28;20506;-77
2024/01/29 12:58:18;;;;;;;21.42;13.45;;;;;;;;;;5041372;28;20058;-77
2024/01/29 13:00:44;;;;;;;30.08;14.82;;;;;;;;;;5071605;28;20399;-77
2024/01/29 13:03:11;;;;;;;22.73;14.82;;;;;;;;;;5053407;28;20093;-77
2024/01/29 13:05:37;;;;;;;29.50;15.30;;;;;;;;;;5075105;28;20503;-76
2024/01/29 13:08:03;;;;;;;31.35;16.08;;;;;;;;;;5069346;28;20119;-77
2024/01/29 13:10:31;;;;;;;33.30;15.80;;;;;;;;;;5073183;28;20050;-76
2024/01/29 13:12:57;;;;;;;31.27;16.75;;;;;;;;;;5072112;28;20036;-76
2024/01/29 13:15:24;;;;;;;34.25;16.58;;;;;;;;;;5057801;28;20050;-75
2024/01/29 13:17:50;;;;;;;29.67;16.30;;;;;;;;;;5070131;28;20143;-76
2024/01/29 13:20:16;;;;;;;34.05;16.23;;;;;;;;;;5056693;28;20044;-76
2024/01/29 13:22:42;;;;;;;28.00;15.70;;;;;;;;;;5055755;28;20074;-77
2024/01/29 13:25:09;;;;;;;27.10;16.00;;;;;;;;;;5074806;28;20047;-77
2024/01/29 13:27:35;;;;;;;26.50;15.60;;;;;;;;;;5057720;28;20388;-77
2024/01/29 13:30:01;;;;;;;25.13;15.75;;;;;;;;;;5072010;28;20031;-77
2024/01/29 13:32:27;;;;;;;33.38;16.42;;;;;;;;;;5072148;28;20054;-78
2024/01/29 13:34:53;;;;;;;28.98;15.77;;;;;;;;;;5058425;28;20394;-76
2024/01/29 13:37:19;;;;;;;25.20;15.10;;;;;;;;;;5071876;28;20407;-77
2024/01/29 13:39:46;;;;;;;27.20;15.88;;;;;;;;;;5056253;28;20044;-77
2024/01/29 13:42:12;;;;;;;31.58;16.42;;;;;;;;;;5054469;28;20044;-76
2024/01/29 13:44:38;;;;;;;27.02;16.30;;;;;;;;;;5055874;28;20044;-77
2024/01/29 13:47:04;;;;;;;28.25;17.00;;;;;;;;;;5052252;28;20426;-77
2024/01/29 13:49:31;;;;;;;28.55;15.73;;;;;;;;;;5056939;28;20072;-77
2024/01/29 13:51:57;;;;;;;29.60;16.35;;;;;;;;;;5056248;28;20028;-77
2024/01/29 13:54:23;;;;;;;28.90;16.90;;;;;;;;;;5058955;28;20038;-77
2024/01/29 13:56:49;;;;;;;30.75;16.13;;;;;;;;;;5065529;28;20479;-78
2024/01/29 13:59:15;;;;;;;34.35;17.27;;;;;;;;;;5060381;28;20403;-78
2024/01/29 14:01:41;;;;;;;33.83;17.95;;;;;;;;;;5066490;28;20043;-78
2024/01/29 14:04:08;;;;;;;30.88;17.27;;;;;;;;;;5054481;28;20483;-80
2024/01/29 14:06:34;;;;;;;42.42;19.55;;;;;;;;;;5056077;28;20040;-78
2024/01/29 14:09:00;;;;;;;43.33;19.83;;;;;;;;;;5035474;28;20036;-75
2024/01/29 14:11:26;;;;;;;47.90;20.35;;;;;;;;;;5052175;28;20040;-77
2024/01/29 14:13:52;;;;;;;43.03;19.08;;;;;;;;;;5042600;28;20047;-77
2024/01/29 14:16:19;;;;;;;43.75;20.30;;;;;;;;;;5059965;28;20036;-78
2024/01/29 14:18:46;;;;;;;42.13;19.60;;;;;;;;;;5069335;28;20036;-77
2024/01/29 14:21:12;;;;;;;48.72;22.10;;;;;;;;;;5072427;28;20047;-76
2024/01/29 14:23:40;;;;;;;48.45;20.40;;;;;;;;;;5058483;28;20040;-77
2024/01/29 14:26:06;;;;;;;54.25;23.05;;;;;;;;;;5049796;28;20094;-78
2024/01/29 14:28:32;;;;;;;52.83;22.48;;;;;;;;;;5075188;28;20040;-77